createdAt,value
2018-07-26T00:02:37.716Z,71.40
2018-07-26T00:06:02.127Z,71.20
2018-07-26T00:09:26.554Z,71.70
2018-07-26T00:12:51.000Z,72.00
2018-07-26T00:19:39.562Z,72.40
2018-07-26T00:23:03.990Z,73.00
2018-07-26T00:26:28.414Z,72.80
2018-07-26T00:29:52.906Z,73.00
2018-07-26T00:33:17.353Z,73.50
2018-07-26T00:36:41.847Z,73.90
2018-07-26T00:40:06.898Z,74.10
2018-07-26T00:43:31.316Z,74.20
2018-07-26T00:46:55.836Z,74.50
2018-07-26T00:50:20.366Z,74.80
2018-07-26T00:53:44.851Z,75.90
2018-07-26T00:57:09.317Z,75.60
2018-07-26T01:00:33.823Z,75.30
2018-07-26T01:03:58.382Z,75.70
2018-07-26T01:07:22.870Z,76.50
2018-07-26T01:10:47.394Z,76.90
2018-07-26T01:14:11.924Z,76.50
2018-07-26T01:17:36.462Z,77.00
2018-07-26T01:21:01.042Z,77.90
2018-07-26T01:24:25.611Z,78.70
2018-07-26T01:27:50.227Z,78.50
2018-07-26T01:31:14.813Z,78.80
2018-07-26T01:34:39.399Z,79.00
2018-07-26T01:38:03.979Z,79.30
2018-07-26T01:41:28.609Z,80.10
2018-07-26T01:44:53.200Z,80.20
2018-07-26T01:48:17.796Z,80.00
2018-07-26T01:51:42.355Z,80.40
2018-07-26T01:55:06.967Z,80.20
2018-07-26T01:58:31.561Z,80.10
2018-07-26T02:01:56.163Z,80.90
2018-07-26T02:05:20.682Z,81.10
2018-07-26T02:08:45.258Z,81.90
2018-07-26T02:12:09.921Z,82.10
2018-07-26T02:15:34.579Z,81.60
2018-07-26T02:18:59.113Z,81.50
2018-07-26T02:22:23.591Z,81.70
2018-07-26T02:25:48.194Z,82.20
2018-07-26T02:29:12.726Z,82.50
2018-07-26T02:32:37.207Z,82.40
2018-07-26T02:36:01.692Z,82.60
2018-07-26T02:39:26.259Z,82.60
2018-07-26T02:42:50.772Z,82.80
2018-07-26T02:46:15.283Z,83.70
2018-07-26T02:49:39.789Z,83.40
2018-07-26T02:53:04.388Z,83.30
2018-07-26T02:56:28.912Z,83.10
2018-07-26T02:59:53.424Z,84.00
2018-07-26T03:03:18.077Z,84.50
2018-07-26T03:06:42.678Z,84.50
2018-07-26T03:10:07.623Z,84.40
2018-07-26T03:13:32.187Z,84.90
2018-07-26T03:16:56.773Z,84.90
2018-07-26T03:20:21.357Z,84.80
2018-07-26T03:23:45.911Z,85.30
2018-07-26T03:30:34.920Z,85.00
2018-07-26T03:33:59.482Z,85.00
2018-07-26T03:37:24.029Z,85.00
2018-07-26T03:40:48.708Z,85.50
2018-07-26T03:44:13.591Z,85.60
2018-07-26T03:47:38.173Z,85.60
2018-07-26T03:51:02.756Z,86.00
2018-07-26T03:54:27.259Z,86.30
2018-07-26T03:57:52.207Z,86.10
2018-07-26T04:01:16.751Z,85.80
2018-07-26T04:04:41.296Z,86.20
2018-07-26T04:08:05.950Z,86.10
2018-07-26T04:11:30.497Z,86.80
2018-07-26T04:14:55.090Z,86.90
2018-07-26T04:18:19.571Z,86.80
2018-07-26T04:21:44.099Z,87.00
2018-07-26T04:25:08.631Z,87.00
2018-07-26T04:28:33.215Z,87.30
2018-07-26T04:31:57.756Z,87.00
2018-07-26T04:35:22.242Z,87.10
2018-07-26T04:38:46.775Z,87.60
2018-07-26T04:42:11.281Z,87.10
2018-07-26T04:45:35.811Z,87.10
2018-07-26T04:49:00.385Z,87.30
2018-07-26T04:52:24.767Z,86.90
2018-07-26T04:55:49.268Z,87.10
2018-07-26T04:59:13.798Z,87.00
2018-07-26T05:02:38.263Z,86.90
2018-07-26T05:06:02.870Z,86.90
2018-07-26T05:09:27.402Z,87.20
2018-07-26T05:12:51.994Z,86.80
2018-07-26T05:16:16.430Z,86.70
2018-07-26T05:19:40.898Z,86.80
2018-07-26T05:23:05.487Z,86.50
2018-07-26T05:26:29.990Z,86.60
2018-07-26T05:29:54.512Z,86.50
2018-07-26T05:33:18.950Z,86.10
2018-07-26T05:36:43.459Z,85.50
2018-07-26T05:40:07.917Z,84.80
2018-07-26T05:43:32.379Z,84.40
2018-07-26T05:46:56.861Z,83.90
2018-07-26T05:50:21.403Z,83.40
2018-07-26T05:53:46.015Z,82.80
2018-07-26T05:57:10.603Z,81.60
2018-07-26T06:00:35.199Z,80.50
2018-07-26T06:03:59.763Z,80.40
2018-07-26T06:07:24.339Z,80.20
2018-07-26T06:10:48.954Z,79.30
2018-07-26T06:14:13.523Z,78.90
2018-07-26T06:17:38.099Z,78.10
2018-07-26T06:21:02.644Z,77.40
2018-07-26T06:24:27.280Z,76.30
2018-07-26T06:27:51.807Z,75.40
2018-07-26T06:31:16.231Z,74.90
2018-07-26T06:34:40.802Z,74.60
2018-07-26T06:38:05.303Z,73.40
2018-07-26T06:41:29.959Z,73.30
2018-07-26T06:44:54.519Z,72.50
2018-07-26T06:48:19.096Z,72.50
2018-07-26T06:51:43.561Z,70.60
2018-07-26T06:55:08.062Z,70.70
2018-07-26T06:58:32.537Z,70.10
2018-07-26T07:01:57.007Z,69.40
2018-07-26T07:05:21.512Z,69.40
2018-07-26T07:08:46.035Z,68.30
2018-07-26T07:12:10.725Z,67.50
2018-07-26T07:15:35.262Z,65.30
2018-07-26T07:18:59.698Z,63.50
2018-07-26T07:22:24.271Z,61.60
2018-07-26T07:25:48.727Z,60.40
2018-07-26T07:29:13.192Z,59.80
2018-07-26T07:32:37.708Z,57.20
2018-07-26T07:36:02.102Z,57.50
2018-07-26T07:39:26.558Z,55.70
2018-07-26T07:42:50.972Z,55.40
2018-07-26T07:46:15.441Z,55.00
2018-07-26T07:49:39.854Z,54.40
2018-07-26T07:53:04.278Z,55.30
2018-07-26T07:56:28.692Z,56.00
2018-07-26T07:59:53.240Z,55.30
2018-07-26T08:03:17.589Z,56.60
2018-07-26T08:06:42.073Z,57.00
2018-07-26T08:10:08.977Z,57.50
2018-07-26T08:13:33.417Z,57.40
2018-07-26T08:16:57.914Z,57.60
2018-07-26T08:20:22.399Z,58.40
2018-07-26T08:23:46.907Z,59.00
2018-07-26T08:27:11.483Z,58.10
2018-07-26T08:30:35.978Z,58.00
2018-07-26T08:37:24.611Z,57.50
2018-07-26T08:40:49.037Z,56.70
2018-07-26T08:44:13.502Z,57.00
2018-07-26T08:47:37.921Z,54.90
2018-07-26T08:51:02.377Z,52.60
2018-07-26T08:54:26.839Z,54.30
2018-07-26T08:57:51.278Z,53.40
2018-07-26T09:01:15.704Z,50.40
2018-07-26T09:04:40.127Z,49.80
2018-07-26T09:08:04.657Z,49.30
2018-07-26T09:11:29.080Z,47.00
2018-07-26T09:14:54.170Z,46.90
2018-07-26T09:18:19.317Z,46.00
2018-07-26T09:21:43.771Z,45.20
2018-07-26T09:25:08.206Z,46.10
2018-07-26T09:28:32.788Z,42.50
2018-07-26T09:31:57.376Z,42.00
2018-07-26T09:35:21.907Z,41.70
2018-07-26T09:38:46.520Z,40.80
2018-07-26T09:42:11.066Z,40.60
2018-07-26T09:45:35.541Z,40.50
2018-07-26T09:49:00.070Z,39.00
2018-07-26T09:52:24.489Z,39.90
2018-07-26T09:55:49.425Z,39.00
2018-07-26T09:59:13.887Z,39.50
2018-07-26T10:02:38.322Z,39.20
2018-07-26T10:06:02.751Z,38.70
2018-07-26T10:09:27.219Z,36.70
2018-07-26T10:12:51.659Z,36.10
2018-07-26T10:16:16.100Z,35.00
2018-07-26T10:19:40.541Z,36.60
2018-07-26T10:23:05.052Z,33.70
2018-07-26T10:26:29.478Z,33.00
2018-07-26T10:29:53.913Z,31.50
2018-07-26T10:33:18.350Z,31.10
2018-07-26T10:36:42.807Z,30.10
2018-07-26T10:40:07.218Z,28.30
2018-07-26T10:43:31.703Z,28.90
2018-07-26T10:46:56.242Z,27.30
2018-07-26T10:50:20.709Z,27.50
2018-07-26T10:53:45.240Z,27.40
2018-07-26T10:57:09.906Z,25.70
2018-07-26T11:00:34.447Z,25.40
2018-07-26T11:03:59.034Z,25.50
2018-07-26T11:07:23.599Z,25.60
2018-07-26T11:10:48.187Z,25.60
2018-07-26T11:14:12.683Z,24.50
2018-07-26T11:17:37.146Z,24.80
2018-07-26T11:21:01.737Z,25.00
2018-07-26T11:24:26.354Z,23.40
2018-07-26T11:27:50.887Z,23.10
2018-07-26T11:31:15.412Z,22.70
2018-07-26T11:34:40.003Z,23.30
2018-07-26T11:38:04.532Z,23.00
2018-07-26T11:41:29.103Z,22.70
2018-07-26T11:44:53.677Z,22.70
2018-07-26T11:48:18.258Z,23.60
2018-07-26T11:51:42.860Z,21.60
2018-07-26T11:55:07.443Z,22.00
2018-07-26T11:58:31.999Z,21.50
2018-07-26T12:01:56.580Z,21.90
2018-07-26T12:05:21.214Z,21.00
2018-07-26T12:08:45.806Z,21.70
2018-07-26T12:12:11.100Z,21.20
2018-07-26T12:18:59.734Z,20.90
2018-07-26T12:22:24.289Z,22.00
2018-07-26T12:25:48.956Z,20.70
2018-07-26T12:29:14.691Z,20.70
2018-07-26T12:32:39.470Z,20.60
2018-07-26T12:36:04.006Z,19.60
2018-07-26T12:42:58.911Z,19.30
2018-07-26T12:46:23.410Z,20.40
2018-07-26T12:49:47.886Z,21.20
2018-07-26T12:53:12.497Z,22.80
2018-07-26T12:56:36.993Z,23.70
2018-07-26T13:00:01.536Z,25.00
2018-07-26T13:03:26.014Z,25.80
2018-07-26T13:10:14.783Z,25.60
2018-07-26T13:13:39.407Z,25.90
2018-07-26T13:17:03.990Z,26.80
2018-07-26T13:20:28.632Z,26.90
2018-07-26T13:23:53.140Z,25.80
2018-07-26T13:27:17.739Z,24.10
2018-07-26T13:30:42.233Z,22.50
2018-07-26T13:34:07.114Z,22.20
2018-07-26T13:37:31.654Z,21.20
2018-07-26T13:40:56.185Z,20.50
2018-07-26T13:44:20.734Z,19.20
2018-07-26T13:47:45.306Z,20.80
2018-07-26T13:51:09.862Z,20.40
2018-07-26T13:54:34.392Z,18.30
2018-07-26T13:57:59.153Z,19.70
2018-07-26T14:01:23.685Z,17.80
2018-07-26T14:04:48.242Z,18.10
2018-07-26T14:08:12.781Z,17.80
2018-07-26T14:11:37.418Z,17.80
2018-07-26T14:15:01.994Z,17.40
2018-07-26T14:18:26.557Z,16.40
2018-07-26T14:21:51.189Z,15.80
2018-07-26T14:25:15.753Z,16.40
2018-07-26T14:28:40.487Z,17.30
2018-07-26T14:32:05.089Z,16.20
2018-07-26T14:35:29.685Z,15.40
2018-07-26T14:38:54.161Z,16.00
2018-07-26T14:42:18.729Z,17.30
2018-07-26T14:45:43.320Z,16.40
2018-07-26T14:49:07.915Z,16.90
2018-07-26T14:52:32.449Z,17.70
2018-07-26T14:55:57.017Z,15.40
2018-07-26T14:59:21.612Z,17.30
2018-07-26T15:02:46.156Z,19.20
2018-07-26T15:06:10.703Z,19.00
2018-07-26T15:09:35.310Z,19.90
2018-07-26T15:13:00.067Z,19.90
2018-07-26T15:16:24.600Z,19.80
2018-07-26T15:19:49.145Z,19.60
2018-07-26T15:23:13.740Z,18.50
2018-07-26T15:26:38.415Z,18.10
2018-07-26T15:30:03.006Z,18.80
2018-07-26T15:33:27.576Z,15.10
2018-07-26T15:36:52.110Z,15.50
2018-07-26T15:40:16.650Z,16.50
2018-07-26T15:43:41.152Z,18.20
2018-07-26T15:47:05.806Z,18.00
2018-07-26T15:50:30.275Z,18.60
2018-07-26T15:53:54.766Z,18.80
2018-07-26T15:57:19.335Z,21.80
2018-07-26T16:00:43.826Z,20.70
2018-07-26T16:04:08.384Z,23.00
2018-07-26T16:07:32.884Z,21.90
2018-07-26T16:10:57.520Z,20.00
2018-07-26T16:14:22.003Z,21.90
2018-07-26T16:17:46.583Z,21.70
2018-07-26T16:21:11.042Z,22.60
2018-07-26T16:24:35.502Z,20.50
2018-07-26T16:27:59.971Z,17.80
2018-07-26T16:31:24.518Z,18.30
2018-07-26T16:34:49.038Z,19.90
2018-07-26T16:38:13.629Z,22.00
2018-07-26T16:41:38.179Z,22.60
2018-07-26T16:45:02.912Z,23.50
2018-07-26T16:48:27.406Z,25.00
2018-07-26T16:51:52.004Z,24.40
2018-07-26T16:55:16.600Z,24.70
2018-07-26T16:58:41.255Z,25.70
2018-07-26T17:02:05.833Z,26.00
2018-07-26T17:05:30.346Z,25.70
2018-07-26T17:08:54.805Z,29.50
2018-07-26T17:12:19.267Z,34.40
2018-07-26T17:15:43.758Z,36.10
2018-07-26T17:19:08.414Z,34.40
2018-07-26T17:22:32.987Z,36.40
2018-07-26T17:25:57.509Z,36.70
2018-07-26T17:29:22.020Z,37.20
2018-07-26T17:32:46.583Z,40.90
2018-07-26T17:36:11.087Z,37.10
2018-07-26T17:39:35.556Z,40.10
2018-07-26T17:43:00.022Z,41.50
2018-07-26T17:46:24.499Z,41.70
2018-07-26T17:49:49.074Z,42.80
2018-07-26T17:53:13.574Z,38.40
2018-07-26T17:56:38.215Z,40.90
2018-07-26T18:00:02.904Z,41.70
2018-07-26T18:03:27.371Z,42.90
2018-07-26T18:06:51.962Z,39.90
2018-07-26T18:10:16.649Z,42.00
2018-07-26T18:13:41.130Z,37.80
2018-07-26T18:20:30.350Z,36.90
2018-07-26T18:23:54.885Z,35.30
2018-07-26T18:27:19.453Z,35.20
2018-07-26T18:30:44.058Z,35.40
2018-07-26T18:34:08.768Z,36.30
2018-07-26T18:37:33.306Z,35.50
2018-07-26T18:40:57.937Z,37.60
2018-07-26T18:44:22.566Z,36.20
2018-07-26T18:47:47.159Z,34.60
2018-07-26T18:51:11.963Z,36.10
2018-07-26T18:54:36.766Z,38.20
2018-07-26T18:58:01.363Z,41.70
2018-07-26T19:01:26.052Z,42.50
2018-07-26T19:08:14.930Z,42.20
2018-07-26T19:11:39.905Z,43.10
2018-07-26T19:15:05.726Z,44.90
2018-07-26T19:18:30.509Z,45.30
2018-07-26T19:21:55.654Z,45.80
2018-07-26T19:25:20.658Z,46.10
2018-07-26T19:28:45.226Z,46.20
2018-07-26T19:32:09.978Z,46.50
2018-07-26T19:35:34.960Z,46.30
2018-07-26T19:38:59.589Z,46.40
2018-07-26T19:42:24.423Z,46.80
2018-07-26T19:45:49.283Z,47.80
2018-07-26T19:49:14.267Z,47.40
2018-07-26T19:52:39.016Z,46.60
2018-07-26T19:56:04.217Z,47.00
2018-07-26T19:59:28.914Z,47.50
2018-07-26T20:02:53.542Z,46.80
2018-07-26T20:06:18.123Z,47.80
2018-07-26T20:09:42.760Z,49.40
2018-07-26T20:13:07.443Z,48.80
2018-07-26T20:16:32.857Z,49.70
2018-07-26T20:19:57.564Z,49.50
2018-07-26T20:23:22.206Z,49.10
2018-07-26T20:26:47.013Z,49.00
2018-07-26T20:30:12.205Z,47.50
2018-07-26T20:33:37.066Z,47.50
2018-07-26T20:37:01.764Z,48.00
2018-07-26T20:40:26.711Z,45.80
2018-07-26T20:43:51.354Z,46.60
2018-07-26T20:47:16.007Z,46.10
2018-07-26T20:50:40.926Z,46.20
2018-07-26T20:54:05.549Z,45.90
2018-07-26T20:57:30.106Z,46.30
2018-07-26T21:00:54.710Z,46.40
2018-07-26T21:04:19.310Z,46.70
2018-07-26T21:07:43.898Z,47.10
2018-07-26T21:11:08.528Z,46.70
2018-07-26T21:14:33.085Z,48.30
2018-07-26T21:17:57.660Z,48.30
2018-07-26T21:21:22.310Z,47.70
2018-07-26T21:24:46.855Z,47.10
2018-07-26T21:28:11.376Z,47.10
2018-07-26T21:31:35.983Z,47.00
2018-07-26T21:35:00.677Z,46.80
2018-07-26T21:38:25.222Z,47.30
2018-07-26T21:41:49.778Z,45.50
2018-07-26T21:45:14.378Z,45.60
2018-07-26T21:48:38.970Z,45.00
2018-07-26T21:52:03.569Z,44.50
2018-07-26T21:55:28.139Z,43.00
2018-07-26T21:58:52.693Z,42.30
2018-07-26T22:05:41.522Z,43.30
2018-07-26T22:09:10.658Z,42.80
2018-07-26T22:12:35.128Z,41.80
2018-07-26T22:15:59.625Z,43.40
2018-07-26T22:19:24.094Z,44.30
2018-07-26T22:22:48.547Z,42.30
2018-07-26T22:26:12.974Z,41.80
2018-07-26T22:29:37.365Z,43.80
2018-07-26T22:33:01.800Z,42.00
2018-07-26T22:36:26.268Z,41.20
2018-07-26T22:39:50.726Z,41.40
2018-07-26T22:43:15.242Z,41.70
2018-07-26T22:46:39.764Z,43.10
2018-07-26T22:50:04.429Z,41.70
2018-07-26T22:53:29.015Z,42.30
2018-07-26T22:56:53.537Z,41.50
2018-07-26T23:00:18.088Z,42.50
2018-07-26T23:03:42.693Z,41.70
2018-07-26T23:07:07.591Z,42.10
2018-07-26T23:10:32.091Z,43.50
2018-07-26T23:13:56.691Z,42.20
2018-07-26T23:17:21.227Z,42.30
2018-07-26T23:20:45.765Z,43.10
2018-07-26T23:24:10.486Z,43.40
2018-07-26T23:27:35.383Z,43.60
2018-07-26T23:30:59.794Z,43.80
2018-07-26T23:34:24.280Z,45.00
2018-07-26T23:37:48.840Z,45.30
2018-07-26T23:41:13.394Z,45.90
2018-07-26T23:48:02.174Z,46.10
2018-07-26T23:51:26.633Z,46.90
2018-07-26T23:54:51.238Z,47.40
2018-07-26T23:58:15.830Z,48.00
